Time;durP1;ratioP1;P1;durP2;ratioP2;P2;SDS_P1;SDS_P2;PMS_P1;PMS_P2;Temp;Humidity;BMP_temperature;BMP_pressure;BME280_temperature;BME280_humidity;BME280_pressure;Samples;Min_cycle;Max_cycle;Signal;HPM_P1;HPM_P2
2024/04/24 00:00:56;;;;;;;4.28;1.30;;;7.80;80.00;;;;;;5351659;26;20025;-64
2024/04/24 00:03:22;;;;;;;3.40;1.30;;;7.80;80.00;;;;;;5369137;26;19997;-62
2024/04/24 00:05:47;;;;;;;2.65;1.20;;;7.80;80.00;;;;;;5373174;26;20524;-61
2024/04/24 00:08:13;;;;;;;3.83;1.27;;;7.80;80.10;;;;;;5364891;26;20015;-63
2024/04/24 00:10:38;;;;;;;3.78;1.40;;;7.80;80.10;;;;;;5366022;26;20000;-63
2024/04/24 00:13:04;;;;;;;3.90;1.40;;;7.70;80.30;;;;;;5364499;26;20459;-62
2024/04/24 00:15:30;;;;;;;3.00;1.25;;;7.70;80.50;;;;;;5377471;26;20001;-63
2024/04/24 00:17:55;;;;;;;4.57;1.48;;;7.60;80.40;;;;;;5363668;26;20000;-62
2024/04/24 00:20:21;;;;;;;3.17;1.25;;;7.60;80.50;;;;;;5372076;26;20037;-63
2024/04/24 00:22:47;;;;;;;4.05;1.38;;;7.60;80.60;;;;;;5367726;26;20012;-63
2024/04/24 00:25:13;;;;;;;6.25;1.70;;;7.70;80.60;;;;;;5366974;26;19996;-64
2024/04/24 00:27:40;;;;;;;3.65;1.40;;;7.60;80.60;;;;;;5362812;26;20023;-63
2024/04/24 00:30:11;;;;;;;5.18;1.38;;;7.50;80.60;;;;;;5368278;26;20019;-62
2024/04/24 00:32:37;;;;;;;3.40;1.40;;;7.50;80.60;;;;;;5363196;26;20073;-60
2024/04/24 00:35:02;;;;;;;5.50;1.35;;;7.40;80.60;;;;;;5368023;26;20000;-61
2024/04/24 00:37:28;;;;;;;4.82;1.40;;;7.40;80.70;;;;;;5357370;26;20013;-60
2024/04/24 00:39:53;;;;;;;6.53;1.80;;;7.40;80.70;;;;;;5375876;26;20085;-60
2024/04/24 00:42:20;;;;;;;3.97;1.50;;;7.30;80.80;;;;;;5367042;26;20058;-63
2024/04/24 00:44:45;;;;;;;5.15;1.42;;;7.30;80.90;;;;;;5373550;26;20013;-62
2024/04/24 00:47:15;;;;;;;3.35;1.45;;;7.30;81.00;;;;;;5372471;26;19997;-62
2024/04/24 00:49:45;;;;;;;4.65;1.58;;;7.30;81.00;;;;;;5370156;26;20463;-63
2024/04/24 00:52:10;;;;;;;5.20;1.70;;;7.30;81.00;;;;;;5374177;26;20015;-59
2024/04/24 00:54:36;;;;;;;4.22;1.60;;;7.30;81.10;;;;;;5373909;26;20004;-62
2024/04/24 00:57:02;;;;;;;3.50;1.30;;;7.30;81.00;;;;;;5364077;26;20049;-62
2024/04/24 00:59:28;;;;;;;4.57;1.38;;;7.30;80.90;;;;;;5375040;26;20401;-62
2024/04/24 01:01:53;;;;;;;3.75;1.35;;;7.20;80.90;;;;;;5367256;26;20017;-63
2024/04/24 01:04:19;;;;;;;4.18;1.40;;;7.30;81.00;;;;;;5375489;26;20077;-60
2024/04/24 01:06:45;;;;;;;6.47;1.90;;;7.30;80.80;;;;;;5364764;26;19993;-62
2024/04/24 01:09:10;;;;;;;3.30;1.10;;;7.30;80.80;;;;;;5369987;26;20332;-63
2024/04/24 01:11:36;;;;;;;2.92;1.30;;;7.20;80.80;;;;;;5367774;26;20331;-63
2024/04/24 01:14:02;;;;;;;4.82;1.63;;;7.20;80.90;;;;;;5369702;26;20775;-60
2024/04/24 01:16:33;;;;;;;3.97;1.33;;;7.20;80.70;;;;;;5374295;26;20011;-61
2024/04/24 01:19:12;;;;;;;4.20;1.53;;;7.10;80.70;;;;;;5377178;26;20004;-62
2024/04/24 01:21:53;;;;;;;5.32;1.90;;;7.10;80.70;;;;;;5362664;26;20470;-59
2024/04/24 01:24:25;;;;;;;4.97;1.57;;;7.10;80.90;;;;;;5372267;26;20074;-62
2024/04/24 01:26:51;;;;;;;5.47;1.70;;;7.10;81.00;;;;;;5361779;26;20264;-63
2024/04/24 01:29:16;;;;;;;4.65;1.38;;;7.10;81.00;;;;;;5367398;26;20000;-59
2024/04/24 01:31:42;;;;;;;6.63;1.98;;;7.10;81.00;;;;;;5360190;26;20012;-63
2024/04/24 01:34:08;;;;;;;5.65;1.55;;;7.20;80.90;;;;;;5368334;26;19992;-62
2024/04/24 01:36:33;;;;;;;5.55;1.80;;;7.20;80.90;;;;;;5371474;26;19996;-63
2024/04/24 01:38:59;;;;;;;4.40;1.58;;;7.10;80.80;;;;;;5364224;26;20471;-63
2024/04/24 01:41:25;;;;;;;3.70;1.60;;;7.10;80.90;;;;;;5364469;26;19997;-63
2024/04/24 01:43:50;;;;;;;4.00;1.63;;;7.10;80.90;;;;;;5355538;26;20001;-62
2024/04/24 01:46:16;;;;;;;5.70;1.63;;;7.10;80.80;;;;;;5364647;26;20011;-63
2024/04/24 01:48:42;;;;;;;5.85;1.50;;;7.10;80.80;;;;;;5370059;26;20000;-62
2024/04/24 01:51:07;;;;;;;5.47;1.70;;;7.20;80.80;;;;;;5376016;26;20482;-61
2024/04/24 01:53:33;;;;;;;4.97;1.50;;;7.20;80.80;;;;;;5358619;26;19997;-62
2024/04/24 01:55:59;;;;;;;4.95;1.70;;;7.10;80.80;;;;;;5365895;26;19997;-62
2024/04/24 01:58:24;;;;;;;6.15;1.90;;;7.10;80.90;;;;;;5365145;26;20069;-61
2024/04/24 02:00:50;;;;;;;4.65;1.60;;;7.10;80.80;;;;;;5366204;26;20004;-61
2024/04/24 02:03:15;;;;;;;5.00;1.50;;;7.00;80.80;;;;;;5369056;26;20008;-62
2024/04/24 02:05:41;;;;;;;4.95;1.50;;;7.00;80.90;;;;;;5375944;26;20014;-62
2024/04/24 02:08:06;;;;;;;5.07;1.70;;;7.00;80.90;;;;;;5375237;26;20007;-64
2024/04/24 02:10:32;;;;;;;3.72;1.40;;;7.00;80.90;;;;;;5363287;26;20070;-63
2024/04/24 02:12:57;;;;;;;4.82;1.65;;;7.00;80.90;;;;;;5364451;26;20077;-63
2024/04/24 02:15:23;;;;;;;5.25;1.60;;;7.00;80.80;;;;;;5367823;26;20000;-64
2024/04/24 02:17:49;;;;;;;4.03;1.42;;;7.00;80.80;;;;;;5373907;26;20004;-63
2024/04/24 02:20:14;;;;;;;3.83;1.35;;;6.90;80.80;;;;;;5368640;26;20019;-63
2024/04/24 02:22:40;;;;;;;4.32;1.58;;;6.90;80.90;;;;;;5372628;26;20004;-64
2024/04/24 02:27:50;;;;;;;5.22;1.50;;;6.90;81.00;;;;;;5371243;26;20015;-63
2024/04/24 02:30:16;;;;;;;4.07;1.55;;;6.90;80.80;;;;;;5368815;26;20012;-63
2024/04/24 02:32:41;;;;;;;4.15;1.42;;;6.90;80.80;;;;;;5361688;26;20439;-64
2024/04/24 02:35:07;;;;;;;3.90;1.45;;;6.80;80.80;;;;;;5363485;26;19996;-62
2024/04/24 02:37:32;;;;;;;4.07;1.50;;;6.70;80.80;;;;;;5367912;26;20505;-61
2024/04/24 02:39:58;;;;;;;4.07;1.50;;;6.70;80.90;;;;;;5369361;26;20075;-62
2024/04/24 02:42:23;;;;;;;6.47;1.60;;;6.60;81.00;;;;;;5367203;26;20008;-64
2024/04/24 02:44:49;;;;;;;4.47;1.50;;;6.60;81.00;;;;;;5365603;26;19997;-64
2024/04/24 02:47:15;;;;;;;4.07;1.50;;;6.60;81.10;;;;;;5373854;26;20015;-64
2024/04/24 02:49:40;;;;;;;5.57;1.52;;;6.60;81.10;;;;;;5366073;26;19992;-63
2024/04/24 02:52:06;;;;;;;4.05;1.60;;;6.70;81.20;;;;;;5367500;26;20011;-65
2024/04/24 02:54:31;;;;;;;3.60;1.52;;;6.70;81.20;;;;;;5369986;26;20004;-63
2024/04/24 02:56:57;;;;;;;5.07;1.60;;;6.70;81.10;;;;;;5377434;26;20000;-64
2024/04/24 02:59:22;;;;;;;5.10;1.65;;;6.70;81.10;;;;;;5360620;26;20005;-63
2024/04/24 03:01:48;;;;;;;5.50;1.70;;;6.60;81.20;;;;;;5371004;26;20003;-63
2024/04/24 03:04:13;;;;;;;5.75;1.90;;;6.60;81.20;;;;;;5359152;26;20450;-63
2024/04/24 03:06:43;;;;;;;5.70;1.90;;;6.60;81.40;;;;;;5366149;26;20005;-62
2024/04/24 03:09:09;;;;;;;5.85;1.60;;;6.50;81.50;;;;;;5359170;26;20005;-62
2024/04/24 03:11:37;;;;;;;5.00;1.75;;;6.50;82.10;;;;;;5363136;26;20023;-60
2024/04/24 03:14:02;;;;;;;4.88;1.80;;;6.40;81.60;;;;;;5361861;26;20040;-63
2024/04/24 03:16:32;;;;;;;5.28;1.92;;;6.40;81.70;;;;;;5371859;26;20011;-62
2024/04/24 03:18:57;;;;;;;5.50;2.03;;;6.30;81.90;;;;;;5366486;26;19996;-61
2024/04/24 03:21:23;;;;;;;5.82;1.80;;;6.30;82.00;;;;;;5369606;26;20074;-63
2024/04/24 03:23:49;;;;;;;6.22;2.08;;;6.30;82.20;;;;;;5365752;26;19996;-61
2024/04/24 03:26:15;;;;;;;5.75;2.20;;;6.20;82.30;;;;;;5369105;26;20304;-59
2024/04/24 03:28:40;;;;;;;4.10;1.73;;;6.10;82.30;;;;;;5367815;26;20368;-62
2024/04/24 03:31:06;;;;;;;7.53;2.00;;;6.10;82.40;;;;;;5370323;26;20011;-63
2024/04/24 03:33:32;;;;;;;5.95;1.83;;;6.10;82.60;;;;;;5367370;26;20393;-63
2024/04/24 03:35:57;;;;;;;4.97;1.67;;;6.00;82.70;;;;;;5364047;26;20015;-63
2024/04/24 03:38:23;;;;;;;6.57;2.00;;;6.00;82.80;;;;;;5360345;26;20354;-63
2024/04/24 03:40:48;;;;;;;6.47;2.10;;;6.00;82.90;;;;;;5358091;26;20004;-63
2024/04/24 03:43:14;;;;;;;4.30;2.00;;;6.00;82.90;;;;;;5365055;26;20026;-62
2024/04/24 03:45:39;;;;;;;6.10;1.90;;;6.00;83.00;;;;;;5370177;26;20004;-63
2024/04/24 03:48:05;;;;;;;3.83;1.65;;;6.00;82.90;;;;;;5357303;26;20012;-63
2024/04/24 03:50:31;;;;;;;6.63;2.03;;;6.00;82.90;;;;;;5364672;26;20012;-63
2024/04/24 03:52:56;;;;;;;5.63;2.15;;;5.90;82.90;;;;;;5364675;26;20004;-60
2024/04/24 03:55:22;;;;;;;6.30;2.03;;;5.90;83.00;;;;;;5375003;26;20033;-61
2024/04/24 03:57:48;;;;;;;6.20;2.20;;;5.90;83.10;;;;;;5363057;26;19996;-65
2024/04/24 04:00:13;;;;;;;4.65;1.60;;;5.90;83.10;;;;;;5368057;26;20000;-63
2024/04/24 04:02:39;;;;;;;5.22;1.80;;;5.80;83.00;;;;;;5366034;26;20056;-64
2024/04/24 04:05:05;;;;;;;5.20;1.58;;;5.80;83.10;;;;;;5362807;26;20028;-64
2024/04/24 04:07:30;;;;;;;4.47;1.52;;;5.80;83.10;;;;;;5358561;26;20015;-64
2024/04/24 04:09:57;;;;;;;4.75;1.65;;;5.80;83.20;;;;;;5365042;26;20004;-62
2024/04/24 04:12:22;;;;;;;5.13;1.83;;;5.80;83.20;;;;;;5359841;26;20083;-63
2024/04/24 04:14:48;;;;;;;7.13;1.65;;;5.80;83.20;;;;;;5368002;26;20000;-60
2024/04/24 04:17:13;;;;;;;3.42;1.48;;;5.80;83.20;;;;;;5369696;26;20078;-63
2024/04/24 04:19:39;;;;;;;7.45;1.90;;;5.70;83.30;;;;;;5366983;26;20083;-63
2024/04/24 04:22:04;;;;;;;5.18;1.92;;;5.70;83.40;;;;;;5352532;26;20000;-63
2024/04/24 04:24:30;;;;;;;5.63;1.80;;;5.70;83.50;;;;;;5362964;26;19996;-62
2024/04/24 04:26:55;;;;;;;3.35;1.45;;;5.70;83.50;;;;;;5363577;26;19996;-61
2024/04/24 04:29:21;;;;;;;7.90;1.60;;;5.70;83.40;;;;;;5361507;26;20009;-62
2024/04/24 04:31:46;;;;;;;4.70;1.40;;;5.70;83.50;;;;;;5358045;26;20390;-63
2024/04/24 04:34:12;;;;;;;3.58;1.55;;;5.70;83.50;;;;;;5369182;26;20459;-62
2024/04/24 04:36:37;;;;;;;5.07;1.60;;;5.70;83.50;;;;;;5370336;26;20041;-64
2024/04/24 04:39:04;;;;;;;4.40;1.52;;;5.70;83.50;;;;;;5367221;26;20015;-62
2024/04/24 04:41:29;;;;;;;5.57;1.88;;;5.70;83.60;;;;;;5354173;26;20000;-62
2024/04/24 04:43:56;;;;;;;4.95;1.73;;;5.70;83.60;;;;;;5371055;26;20011;-61
2024/04/24 04:46:22;;;;;;;4.75;1.58;;;5.70;83.50;;;;;;5370059;26;20015;-61
2024/04/24 04:48:48;;;;;;;4.55;1.80;;;5.70;83.60;;;;;;5356915;26;19998;-62
2024/04/24 04:51:13;;;;;;;3.58;1.60;;;5.70;83.60;;;;;;5363698;26;20004;-62
2024/04/24 04:53:39;;;;;;;3.95;1.50;;;5.80;83.60;;;;;;5363803;26;20001;-61
2024/04/24 04:56:05;;;;;;;6.35;1.52;;;5.90;83.60;;;;;;5368493;26;20373;-63
2024/04/24 04:58:30;;;;;;;5.70;1.90;;;5.90;83.40;;;;;;5364172;26;20012;-63
2024/04/24 05:00:56;;;;;;;4.40;1.40;;;5.90;83.40;;;;;;5374737;26;20008;-64
2024/04/24 05:03:21;;;;;;;5.05;1.50;;;5.90;83.30;;;;;;5358429;26;20012;-63
2024/04/24 05:05:47;;;;;;;5.70;1.70;;;6.00;83.30;;;;;;5367627;26;20073;-64
2024/04/24 05:08:13;;;;;;;5.45;1.83;;;6.00;83.20;;;;;;5359618;26;20005;-64
2024/04/24 05:10:38;;;;;;;4.38;1.50;;;6.00;83.10;;;;;;5368056;26;19996;-65
2024/04/24 05:13:08;;;;;;;6.47;1.58;;;6.10;83.10;;;;;;5358800;26;20001;-64
2024/04/24 05:15:34;;;;;;;5.10;1.67;;;6.10;83.10;;;;;;5369110;26;20007;-63
2024/04/24 05:18:00;;;;;;;5.63;1.73;;;6.20;83.00;;;;;;5355185;26;20078;-64
2024/04/24 05:20:25;;;;;;;4.35;1.73;;;6.30;82.90;;;;;;5369564;26;20035;-63
2024/04/24 05:23:00;;;;;;;3.03;1.35;;;6.30;82.90;;;;;;5367652;26;19996;-63
2024/04/24 05:25:31;;;;;;;6.10;1.52;;;6.30;82.70;;;;;;5358979;26;20514;-63
2024/04/24 05:30:41;;;;;;;4.35;1.48;;;6.50;82.80;;;;;;5369169;26;20047;-61
2024/04/24 05:33:07;;;;;;;3.17;1.40;;;6.70;82.50;;;;;;5364331;26;19993;-61
2024/04/24 05:35:32;;;;;;;3.20;1.50;;;6.70;82.40;;;;;;5377746;26;20008;-62
2024/04/24 05:37:58;;;;;;;5.25;1.80;;;6.70;82.40;;;;;;5361680;26;20009;-64
2024/04/24 05:40:23;;;;;;;9.82;2.17;;;6.70;82.30;;;;;;5365006;26;20007;-61
2024/04/24 05:42:49;;;;;;;5.85;2.05;;;6.70;82.30;;;;;;5372043;26;20015;-63
2024/04/24 05:45:15;;;;;;;7.45;1.70;;;6.70;82.40;;;;;;5376039;26;20479;-63
2024/04/24 05:47:40;;;;;;;4.93;1.95;;;6.80;82.40;;;;;;5362867;26;20451;-61
2024/04/24 05:50:06;;;;;;;6.93;1.73;;;7.20;82.30;;;;;;5359774;26;19996;-61
2024/04/24 05:52:31;;;;;;;6.97;1.70;;;7.60;80.90;;;;;;5360203;26;19996;-63
2024/04/24 05:54:57;;;;;;;3.90;1.55;;;8.10;80.10;;;;;;5371378;26;19993;-62
2024/04/24 05:57:23;;;;;;;7.43;1.95;;;8.50;78.80;;;;;;5374562;26;20000;-62
2024/04/24 05:59:51;;;;;;;5.57;2.20;;;8.50;77.70;;;;;;5363588;26;19997;-63
2024/04/24 06:02:17;;;;;;;6.10;1.60;;;8.30;77.40;;;;;;5358968;26;20040;-60
2024/04/24 06:04:43;;;;;;;8.68;1.90;;;8.10;77.70;;;;;;5363390;26;20684;-62
2024/04/24 06:07:08;;;;;;;5.93;1.70;;;8.00;77.90;;;;;;5365547;26;20412;-61
2024/04/24 06:09:34;;;;;;;5.60;1.80;;;7.90;78.30;;;;;;5369302;26;20000;-63
2024/04/24 06:11:59;;;;;;;8.00;1.70;;;7.80;78.50;;;;;;5364626;26;19997;-63
2024/04/24 06:14:25;;;;;;;9.13;2.33;;;7.70;78.60;;;;;;5375306;26;20501;-61
2024/04/24 06:16:51;;;;;;;8.20;1.77;;;7.70;78.80;;;;;;5374065;26;20004;-62
2024/04/24 06:19:17;;;;;;;6.78;1.80;;;7.50;78.80;;;;;;5361870;26;20011;-63
2024/04/24 06:21:42;;;;;;;7.90;1.80;;;7.50;79.10;;;;;;5363021;26;20559;-62
2024/04/24 06:24:08;;;;;;;5.90;1.75;;;7.40;79.30;;;;;;5368213;26;20077;-63
2024/04/24 06:26:35;;;;;;;5.82;2.00;;;7.40;79.30;;;;;;5363915;26;20048;-63
2024/04/24 06:29:00;;;;;;;8.98;2.00;;;7.40;79.30;;;;;;5357365;26;20004;-62
2024/04/24 06:31:26;;;;;;;7.00;1.83;;;7.40;79.50;;;;;;5358290;26;19993;-62
2024/04/24 06:33:51;;;;;;;7.18;1.88;;;7.30;79.40;;;;;;5368881;26;20000;-63
2024/04/24 06:36:17;;;;;;;8.02;1.73;;;7.30;79.30;;;;;;5357962;26;20016;-63
2024/04/24 06:38:42;;;;;;;7.20;1.60;;;7.30;79.30;;;;;;5362577;26;20003;-63
2024/04/24 06:41:08;;;;;;;7.25;2.13;;;7.30;79.10;;;;;;5364180;26;20009;-63
2024/04/24 06:43:33;;;;;;;4.30;1.60;;;7.30;79.10;;;;;;5363457;26;20081;-64
2024/04/24 06:45:59;;;;;;;8.52;1.75;;;7.40;79.10;;;;;;5360210;26;20075;-62
2024/04/24 06:48:25;;;;;;;5.10;1.80;;;7.40;79.10;;;;;;5372073;26;20045;-62
2024/04/24 06:50:50;;;;;;;5.43;2.08;;;7.40;79.10;;;;;;5361795;26;20014;-64
2024/04/24 06:53:16;;;;;;;5.68;2.00;;;7.50;79.10;;;;;;5371992;26;20007;-63
2024/04/24 06:55:44;;;;;;;8.93;2.03;;;7.80;79.10;;;;;;5364594;26;20000;-62
2024/04/24 06:58:09;;;;;;;9.40;2.00;;;8.60;78.00;;;;;;5371802;26;20081;-62
2024/04/24 07:00:35;;;;;;;7.65;1.90;;;8.70;76.60;;;;;;5362925;26;20434;-61
2024/04/24 07:03:03;;;;;;;10.40;2.10;;;8.50;76.80;;;;;;5363133;26;20058;-62
2024/04/24 07:05:28;;;;;;;5.45;1.67;;;8.30;76.50;;;;;;5355746;26;20609;-62
2024/04/24 07:07:54;;;;;;;8.63;2.17;;;8.50;77.00;;;;;;5356391;26;20000;-60
2024/04/24 07:10:19;;;;;;;8.63;2.03;;;9.20;76.50;;;;;;5366013;26;20012;-63
2024/04/24 07:12:45;;;;;;;6.55;1.92;;;10.10;73.80;;;;;;5367351;26;20381;-63
2024/04/24 07:15:10;;;;;;;11.50;2.17;;;10.00;73.00;;;;;;5358844;26;20556;-63
2024/04/24 07:17:36;;;;;;;6.63;1.92;;;9.60;73.50;;;;;;5367492;26;20192;-63
2024/04/24 07:20:01;;;;;;;7.85;2.10;;;9.30;74.10;;;;;;5361714;26;20001;-62
2024/04/24 07:22:27;;;;;;;12.20;2.72;;;9.10;74.60;;;;;;5360137;26;20015;-62
2024/04/24 07:24:52;;;;;;;8.00;2.22;;;8.80;75.00;;;;;;5355535;26;20001;-63
2024/04/24 07:27:18;;;;;;;11.35;2.30;;;8.70;75.60;;;;;;5364507;26;19996;-63
2024/04/24 07:29:44;;;;;;;12.40;2.50;;;8.60;75.80;;;;;;5364173;26;20081;-63
2024/04/24 07:32:09;;;;;;;10.02;2.03;;;8.60;75.90;;;;;;5365708;26;20340;-63
2024/04/24 07:34:35;;;;;;;7.00;2.38;;;8.60;75.90;;;;;;5367745;26;20011;-63
2024/04/24 07:37:00;;;;;;;7.15;2.25;;;8.80;75.90;;;;;;5356235;26;19996;-64
2024/04/24 07:39:26;;;;;;;8.13;2.10;;;9.40;75.40;;;;;;5358282;26;20368;-63
2024/04/24 07:41:52;;;;;;;8.20;2.03;;;10.50;72.90;;;;;;5363788;26;20032;-64
2024/04/24 07:44:17;;;;;;;8.80;2.25;;;10.30;71.60;;;;;;5360653;26;19996;-64
2024/04/24 07:46:43;;;;;;;8.68;2.47;;;10.10;71.80;;;;;;5351120;26;20004;-62
2024/04/24 07:49:08;;;;;;;11.93;2.50;;;9.70;72.90;;;;;;5367201;26;20015;-64
2024/04/24 07:51:34;;;;;;;10.38;2.65;;;9.40;73.00;;;;;;5358901;26;20001;-63
2024/04/24 07:54:00;;;;;;;11.63;2.28;;;9.20;73.70;;;;;;5368434;26;20001;-63
2024/04/24 07:56:25;;;;;;;8.48;1.92;;;9.00;74.50;;;;;;5367652;26;20001;-63
2024/04/24 07:58:51;;;;;;;5.85;1.95;;;8.90;75.00;;;;;;5354264;26;20012;-63
2024/04/24 08:01:18;;;;;;;8.80;1.90;;;8.50;75.70;;;;;;5364463;26;20011;-64
2024/04/24 08:03:44;;;;;;;8.38;1.50;;;8.30;76.70;;;;;;5357231;26;20073;-64
2024/04/24 08:06:09;;;;;;;6.35;1.92;;;8.20;77.40;;;;;;5366848;26;20004;-65
2024/04/24 08:08:38;;;;;;;5.93;2.08;;;8.00;78.20;;;;;;5368138;26;20007;-63
2024/04/24 08:11:04;;;;;;;7.00;1.73;;;8.00;78.90;;;;;;5357761;26;20012;-65
2024/04/24 08:13:29;;;;;;;6.05;1.67;;;7.90;79.50;;;;;;5358380;26;20005;-64
2024/04/24 08:15:55;;;;;;;6.15;1.55;;;7.80;80.10;;;;;;5364258;26;20438;-64
2024/04/24 08:18:20;;;;;;;5.68;1.40;;;7.60;80.60;;;;;;5360761;26;20012;-63
2024/04/24 08:20:46;;;;;;;5.45;1.30;;;7.60;81.00;;;;;;5357730;26;20005;-63
2024/04/24 08:23:12;;;;;;;2.88;1.00;;;7.50;81.20;;;;;;5368880;26;20130;-63
2024/04/24 08:25:37;;;;;;;2.38;1.25;;;7.40;81.50;;;;;;5369427;26;20005;-63
2024/04/24 08:28:03;;;;;;;2.35;0.82;;;7.20;81.90;;;;;;5369768;26;20011;-64
2024/04/24 08:30:28;;;;;;;1.52;0.95;;;7.00;82.20;;;;;;5374605;26;20011;-64
2024/04/24 08:32:54;;;;;;;1.52;0.85;;;6.80;82.50;;;;;;5368250;26;20008;-64
2024/04/24 08:35:20;;;;;;;1.23;0.80;;;6.70;83.00;;;;;;5358378;26;20012;-64
2024/04/24 08:37:45;;;;;;;1.27;0.85;;;6.60;83.20;;;;;;5353330;26;20004;-64
2024/04/24 08:40:11;;;;;;;2.58;0.95;;;6.60;83.60;;;;;;5354534;26;20016;-63
2024/04/24 08:42:37;;;;;;;1.55;0.90;;;6.60;83.80;;;;;;5364649;26;19996;-64
2024/04/24 08:45:03;;;;;;;2.85;1.08;;;6.60;83.90;;;;;;5360241;26;20419;-63
2024/04/24 08:47:29;;;;;;;3.63;1.00;;;6.60;84.00;;;;;;5353756;26;20082;-64
2024/04/24 08:49:55;;;;;;;2.22;0.93;;;6.50;84.30;;;;;;5375592;26;20447;-64
2024/04/24 08:52:25;;;;;;;2.15;1.00;;;6.50;84.50;;;;;;5370215;26;20341;-63
2024/04/24 08:54:56;;;;;;;2.78;1.10;;;6.60;84.60;;;;;;5356961;26;20075;-63
2024/04/24 08:57:24;;;;;;;2.55;1.20;;;6.70;84.60;;;;;;5359538;26;20497;-62
2024/04/24 08:59:53;;;;;;;1.88;1.00;;;6.90;84.70;;;;;;5352830;26;20005;-64
2024/04/24 09:02:21;;;;;;;2.20;1.00;;;7.10;84.60;;;;;;5365772;26;19992;-63
2024/04/24 09:04:49;;;;;;;2.00;1.17;;;7.30;84.60;;;;;;5362031;26;20000;-65
2024/04/24 09:07:19;;;;;;;2.38;1.23;;;7.50;84.60;;;;;;5364437;26;20004;-64
2024/04/24 09:09:45;;;;;;;4.15;1.10;;;7.60;84.30;;;;;;5352345;26;19997;-63
2024/04/24 09:12:11;;;;;;;2.75;1.10;;;7.70;84.20;;;;;;5360503;26;20055;-63
2024/04/24 09:14:37;;;;;;;2.63;1.13;;;7.70;84.20;;;;;;5369327;26;20343;-64
2024/04/24 09:17:04;;;;;;;4.88;1.35;;;7.70;84.40;;;;;;5359409;26;20085;-63
2024/04/24 09:19:30;;;;;;;2.70;1.08;;;7.80;84.40;;;;;;5360550;26;20005;-62
2024/04/24 09:21:56;;;;;;;2.10;1.02;;;7.70;84.40;;;;;;5363182;26;20165;-63
2024/04/24 09:24:22;;;;;;;3.63;1.15;;;7.60;84.40;;;;;;5365598;26;20000;-64
2024/04/24 09:26:48;;;;;;;3.30;1.00;;;7.40;84.40;;;;;;5373999;26;20024;-64
2024/04/24 09:29:14;;;;;;;3.97;1.20;;;7.40;84.80;;;;;;5367622;26;20095;-64
2024/04/24 09:31:41;;;;;;;1.17;0.70;;;7.40;84.90;;;;;;5362273;26;22684;-63
2024/04/24 09:34:07;;;;;;;1.42;0.90;;;7.40;84.90;;;;;;5367899;26;20003;-65
2024/04/24 09:36:37;;;;;;;1.33;0.80;;;7.40;85.00;;;;;;5373911;26;20086;-64
2024/04/24 09:39:30;;;;;;;2.67;0.93;;;7.50;85.20;;;;;;5364754;26;19997;-64
2024/04/24 09:41:56;;;;;;;1.75;0.85;;;7.60;85.30;;;;;;5359181;26;20461;-64
2024/04/24 09:44:27;;;;;;;0.73;0.70;;;7.80;85.00;;;;;;5375225;26;19996;-64
2024/04/24 09:46:54;;;;;;;2.90;0.88;;;7.90;84.90;;;;;;5363796;26;20047;-64
2024/04/24 09:49:21;;;;;;;2.10;1.00;;;8.10;84.90;;;;;;5362966;26;20011;-62
2024/04/24 09:51:50;;;;;;;2.15;0.90;;;8.20;84.80;;;;;;5371390;26;19997;-64
2024/04/24 09:54:16;;;;;;;1.52;0.98;;;8.40;85.00;;;;;;5371129;26;20012;-62
2024/04/24 09:56:43;;;;;;;2.10;0.80;;;8.60;85.10;;;;;;5378780;26;20019;-64
2024/04/24 09:59:13;;;;;;;4.50;1.10;;;8.80;85.20;;;;;;5362287;26;20320;-64
2024/04/24 10:01:45;;;;;;;2.20;1.08;;;9.00;85.20;;;;;;5365490;26;20014;-64
2024/04/24 10:04:14;;;;;;;4.00;1.33;;;9.20;85.10;;;;;;5365305;26;20515;-64
2024/04/24 10:06:43;;;;;;;3.03;1.30;;;9.50;84.80;;;;;;5372992;26;20564;-64
2024/04/24 10:09:11;;;;;;;3.65;1.30;;;9.70;84.50;;;;;;5356999;26;20005;-63
2024/04/24 10:11:44;;;;;;;4.13;1.30;;;9.70;83.80;;;;;;5365397;26;20022;-63
2024/04/24 10:14:13;;;;;;;2.92;1.30;;;9.70;83.60;;;;;;5368620;26;20008;-64
2024/04/24 10:16:39;;;;;;;4.72;1.63;;;9.70;83.80;;;;;;5360511;26;20328;-64
2024/04/24 10:19:05;;;;;;;3.30;1.30;;;9.70;83.90;;;;;;5372818;26;20004;-63
2024/04/24 10:21:32;;;;;;;4.13;1.40;;;9.50;83.80;;;;;;5366336;26;20470;-64
2024/04/24 10:24:01;;;;;;;4.88;1.42;;;9.50;83.90;;;;;;5367882;26;20024;-64
2024/04/24 10:26:28;;;;;;;5.13;1.30;;;9.30;83.70;;;;;;5373066;26;20015;-63
2024/04/24 10:28:54;;;;;;;3.58;1.30;;;9.00;83.70;;;;;;5367104;26;20012;-64
2024/04/24 10:31:22;;;;;;;4.25;1.80;;;8.60;83.60;;;;;;5362900;26;19996;-65
2024/04/24 10:33:49;;;;;;;4.43;1.30;;;8.20;83.90;;;;;;5368232;26;20008;-62
2024/04/24 10:36:14;;;;;;;4.07;1.20;;;8.00;84.30;;;;;;5379291;26;20022;-64
2024/04/24 10:38:44;;;;;;;3.38;1.20;;;7.90;84.80;;;;;;5372571;26;20477;-64
2024/04/24 10:41:10;;;;;;;3.88;1.20;;;7.90;85.10;;;;;;5368540;26;20003;-64
2024/04/24 10:43:36;;;;;;;4.03;1.10;;;7.90;85.20;;;;;;5370460;26;20004;-63
2024/04/24 10:46:03;;;;;;;5.57;1.45;;;8.00;85.30;;;;;;5363207;26;20502;-64
2024/04/24 10:48:56;;;;;;;6.22;1.50;;;8.10;85.20;;;;;;5371553;26;20408;-64
2024/04/24 10:51:35;;;;;;;5.93;1.50;;;8.10;85.20;;;;;;5372204;26;20008;-64
2024/04/24 10:54:06;;;;;;;3.17;1.00;;;8.10;85.40;;;;;;5369913;26;20681;-63
2024/04/24 10:56:32;;;;;;;4.95;1.30;;;8.20;85.50;;;;;;5380378;26;19999;-64
2024/04/24 10:58:58;;;;;;;5.95;1.58;;;8.30;85.80;;;;;;5372094;26;20032;-64
2024/04/24 11:01:30;;;;;;;2.67;1.30;;;8.40;86.40;;;;;;5357833;26;20006;-64
2024/04/24 11:03:56;;;;;;;4.30;1.45;;;8.70;86.70;;;;;;5369766;26;20056;-64
2024/04/24 11:06:21;;;;;;;4.45;1.42;;;8.90;86.40;;;;;;5364645;26;20458;-63
2024/04/24 11:08:50;;;;;;;5.05;1.77;;;9.00;87.00;;;;;;5370563;26;20004;-64
2024/04/24 11:11:21;;;;;;;3.75;1.65;;;9.10;86.60;;;;;;5364934;26;20426;-64
2024/04/24 11:13:57;;;;;;;6.80;1.80;;;9.30;86.70;;;;;;5361069;26;20012;-63
2024/04/24 11:16:23;;;;;;;4.68;1.70;;;9.50;86.70;;;;;;5369013;26;20000;-65
2024/04/24 11:18:50;;;;;;;5.72;1.85;;;9.70;86.70;;;;;;5371284;26;20049;-63
2024/04/24 11:21:26;;;;;;;6.25;2.05;;;9.90;86.50;;;;;;5362249;26;20000;-64
2024/04/24 11:23:52;;;;;;;8.00;1.80;;;9.90;86.00;;;;;;5382318;26;20031;-65
2024/04/24 11:26:29;;;;;;;6.88;1.52;;;9.90;85.80;;;;;;5367273;26;20016;-65
2024/04/24 11:29:00;;;;;;;6.68;2.00;;;9.80;86.10;;;;;;5371476;26;20079;-65
2024/04/24 11:31:26;;;;;;;8.80;1.83;;;9.70;85.80;;;;;;5363274;26;20015;-64
2024/04/24 11:33:53;;;;;;;8.20;2.08;;;9.60;85.70;;;;;;5362796;26;20016;-64
2024/04/24 11:36:18;;;;;;;5.90;1.80;;;9.70;86.00;;;;;;5371780;26;20018;-64
2024/04/24 11:38:44;;;;;;;7.85;2.08;;;9.70;86.20;;;;;;5365844;26;20564;-65
2024/04/24 11:41:09;;;;;;;6.95;1.80;;;9.90;86.50;;;;;;5369627;26;20087;-64
2024/04/24 11:43:35;;;;;;;7.18;2.10;;;10.10;86.90;;;;;;5373806;26;20107;-64
2024/04/24 11:46:01;;;;;;;5.63;1.77;;;10.40;86.80;;;;;;5365117;26;19997;-65
2024/04/24 11:48:26;;;;;;;5.68;2.13;;;10.50;86.50;;;;;;5366041;26;20009;-64
2024/04/24 11:50:54;;;;;;;5.28;1.50;;;10.60;86.00;;;;;;5368496;26;20004;-64
2024/04/24 11:53:21;;;;;;;4.68;1.52;;;10.70;85.50;;;;;;5369007;26;20029;-64
2024/04/24 11:55:46;;;;;;;4.35;1.60;;;10.90;85.20;;;;;;5368286;26;20005;-65
2024/04/24 11:58:13;;;;;;;5.88;1.50;;;11.00;84.60;;;;;;5377653;26;20907;-64
2024/04/24 12:00:39;;;;;;;5.90;1.67;;;11.00;83.70;;;;;;5372136;26;20007;-65
2024/04/24 12:03:05;;;;;;;4.38;1.30;;;11.10;82.80;;;;;;5369203;26;20011;-64
2024/04/24 12:05:31;;;;;;;3.75;1.40;;;11.10;82.40;;;;;;5362162;26;20037;-65
2024/04/24 12:07:56;;;;;;;6.22;1.40;;;11.20;82.40;;;;;;5366567;26;20001;-64
2024/04/24 12:10:26;;;;;;;4.50;1.50;;;11.50;81.70;;;;;;5366834;26;20000;-65
2024/04/24 12:12:53;;;;;;;5.90;1.90;;;11.60;80.70;;;;;;5362581;26;20016;-65
2024/04/24 12:15:19;;;;;;;8.68;1.90;;;11.60;78.90;;;;;;5371978;26;20458;-66
2024/04/24 12:17:44;;;;;;;7.47;1.80;;;11.50;77.40;;;;;;5369633;26;20092;-64
2024/04/24 12:20:10;;;;;;;8.93;1.75;;;11.50;77.40;;;;;;5371792;26;20000;-65
2024/04/24 12:22:35;;;;;;;5.85;1.60;;;11.60;77.30;;;;;;5374226;26;20016;-64
2024/04/24 12:25:01;;;;;;;6.53;1.55;;;11.80;77.60;;;;;;5361567;26;20038;-64
2024/04/24 12:27:27;;;;;;;3.75;1.35;;;11.90;76.30;;;;;;5362614;26;20109;-63
2024/04/24 12:29:53;;;;;;;6.15;1.77;;;11.80;74.90;;;;;;5361075;26;19999;-65
2024/04/24 12:32:19;;;;;;;6.88;1.40;;;11.80;74.30;;;;;;5368452;26;20793;-65
2024/04/24 12:34:44;;;;;;;5.93;1.80;;;12.00;74.80;;;;;;5387918;26;20035;-65
2024/04/24 12:37:10;;;;;;;5.10;1.48;;;12.30;74.60;;;;;;5372049;26;20471;-63
2024/04/24 12:39:35;;;;;;;5.07;1.27;;;12.60;74.40;;;;;;5365790;26;20397;-65
2024/04/24 12:42:01;;;;;;;4.03;1.35;;;12.70;72.80;;;;;;5383574;26;20451;-64
2024/04/24 12:44:26;;;;;;;4.60;1.40;;;12.70;72.20;;;;;;5372818;26;19996;-64
2024/04/24 12:46:53;;;;;;;4.38;1.30;;;12.50;70.80;;;;;;5371524;26;20044;-63
2024/04/24 12:49:18;;;;;;;4.22;1.33;;;12.20;71.10;;;;;;5370166;26;20439;-64
2024/04/24 12:51:44;;;;;;;5.15;1.52;;;12.10;71.70;;;;;;5373482;26;20082;-64
2024/04/24 12:54:09;;;;;;;4.72;1.20;;;12.00;71.50;;;;;;5363545;26;20065;-63
2024/04/24 12:56:35;;;;;;;7.05;1.48;;;12.00;71.80;;;;;;5363384;26;20020;-64